Time;durP1;ratioP1;P1;durP2;ratioP2;P2;SDS_P1;SDS_P2;PMS_P1;PMS_P2;Temp;Humidity;BMP_temperature;BMP_pressure;BME280_temperature;BME280_humidity;BME280_pressure;Samples;Min_cycle;Max_cycle;Signal;HPM_P1;HPM_P2
2021/04/23 00:00:46;;;;;;;11.00;7.17;;;2.60;99.90;;;;;;5059922;28;20399;-79
2021/04/23 00:03:20;;;;;;;13.50;6.93;;;2.60;99.90;;;;;;5060848;28;20411;-79
2021/04/23 00:05:48;;;;;;;11.73;6.90;;;2.60;99.90;;;;;;5062198;28;20499;-80
2021/04/23 00:08:14;;;;;;;10.57;7.47;;;2.70;99.90;;;;;;5063728;28;20431;-79
2021/04/23 00:10:40;;;;;;;10.13;6.97;;;2.60;99.90;;;;;;5078435;28;20965;-79
2021/04/23 00:13:06;;;;;;;12.43;7.77;;;2.60;99.90;;;;;;5061855;28;20469;-79
2021/04/23 00:15:32;;;;;;;17.37;8.77;;;2.60;99.90;;;;;;5061488;28;20188;-79
2021/04/23 00:17:58;;;;;;;15.33;8.57;;;2.50;99.90;;;;;;5061615;28;20503;-79
2021/04/23 00:20:27;;;;;;;13.23;7.97;;;2.50;99.90;;;;;;5061447;28;20193;-79
2021/04/23 00:22:55;;;;;;;14.70;8.30;;;2.30;99.90;;;;;;5062918;28;20419;-79
2021/04/23 00:25:25;;;;;;;15.53;8.47;;;2.40;99.90;;;;;;5061021;28;20901;-78
2021/04/23 00:27:55;;;;;;;11.30;7.83;;;2.30;99.90;;;;;;5061175;28;20407;-79
2021/04/23 00:30:27;;;;;;;11.53;8.40;;;2.30;99.90;;;;;;5062323;28;20408;-79
2021/04/23 00:32:54;;;;;;;12.93;7.80;;;2.30;99.90;;;;;;5061757;28;20380;-79
2021/04/23 00:35:23;;;;;;;12.00;8.53;;;2.20;99.90;;;;;;5077202;28;20420;-79
2021/04/23 00:37:52;;;;;;;13.80;9.27;;;2.20;99.90;;;;;;5060285;28;20447;-79
2021/04/23 00:40:30;;;;;;;14.90;8.00;;;2.30;99.90;;;;;;5061359;28;20400;-79
2021/04/23 00:42:57;;;;;;;12.27;7.33;;;2.10;99.90;;;;;;5059706;28;20728;-79
2021/04/23 00:45:26;;;;;;;12.90;8.40;;;2.20;99.90;;;;;;5060906;28;20416;-78
2021/04/23 00:47:53;;;;;;;14.77;9.23;;;2.10;99.90;;;;;;5061989;28;20408;-79
2021/04/23 00:50:45;;;;;;;11.70;8.50;;;2.10;99.90;;;;;;5059968;28;20404;-79
2021/04/23 00:53:16;;;;;;;10.93;7.73;;;2.10;99.90;;;;;;5061173;28;20420;-79
2021/04/23 00:55:42;;;;;;;12.90;8.37;;;2.00;99.90;;;;;;5060579;28;20401;-78
2021/04/23 00:58:16;;;;;;;12.37;8.03;;;2.10;99.90;;;;;;5061285;28;20424;-79
2021/04/23 01:00:48;;;;;;;12.73;8.57;;;2.00;99.90;;;;;;5060625;28;20184;-79
2021/04/23 01:03:16;;;;;;;14.37;8.10;;;1.90;99.90;;;;;;5059717;28;20448;-79
2021/04/23 01:05:42;;;;;;;16.03;7.83;;;1.80;99.90;;;;;;5061215;28;20416;-78
2021/04/23 01:08:08;;;;;;;11.43;7.57;;;1.80;99.90;;;;;;5061824;28;20947;-79
2021/04/23 01:10:35;;;;;;;14.50;9.17;;;1.70;99.90;;;;;;5076991;28;20416;-78
2021/04/23 01:13:01;;;;;;;14.97;9.07;;;1.70;99.90;;;;;;5061687;28;20180;-79
2021/04/23 01:15:27;;;;;;;25.53;12.37;;;1.60;99.90;;;;;;5061817;28;20404;-79
2021/04/23 01:17:53;;;;;;;21.90;12.30;;;1.60;99.90;;;;;;5061981;28;20174;-79
2021/04/23 01:20:21;;;;;;;49.93;26.60;;;2.10;99.90;;;;;;5062321;28;20789;-78
2021/04/23 01:22:47;;;;;;;43.50;23.03;;;1.50;99.90;;;;;;5077942;28;20174;-79
2021/04/23 01:25:14;;;;;;;50.73;25.67;;;1.50;99.90;;;;;;5078788;28;20514;-79
2021/04/23 01:27:40;;;;;;;36.87;21.57;;;1.60;99.90;;;;;;5063448;28;20419;-79
2021/04/23 01:30:09;;;;;;;46.13;26.07;;;1.60;99.90;;;;;;5064898;28;20424;-78
2021/04/23 01:32:35;;;;;;;25.27;15.33;;;1.60;99.90;;;;;;5065071;28;20552;-79
2021/04/23 01:35:03;;;;;;;17.73;11.63;;;1.60;99.90;;;;;;5066491;28;20944;-79
2021/04/23 01:37:29;;;;;;;12.47;8.60;;;1.60;99.90;;;;;;5063958;28;20177;-79
2021/04/23 01:39:56;;;;;;;15.73;9.37;;;1.60;99.90;;;;;;5066648;28;20428;-78
2021/04/23 01:42:23;;;;;;;19.93;8.97;;;1.60;99.90;;;;;;5072919;28;20184;-78
2021/04/23 01:44:49;;;;;;;14.70;9.53;;;1.40;99.90;;;;;;5079363;28;20427;-78
2021/04/23 01:47:15;;;;;;;12.60;8.43;;;1.40;99.90;;;;;;5078857;28;20408;-78
2021/04/23 01:49:41;;;;;;;13.10;8.93;;;1.30;99.90;;;;;;5063157;28;20786;-79
2021/04/23 01:52:13;;;;;;;14.67;8.73;;;2.30;99.90;;;;;;5059753;28;20197;-79
2021/04/23 01:54:39;;;;;;;15.53;8.67;;;1.30;99.90;;;;;;5059381;28;20161;-79
2021/04/23 01:57:07;;;;;;;12.47;8.57;;;1.30;99.90;;;;;;5060225;28;20506;-79
2021/04/23 01:59:35;;;;;;;15.17;8.67;;;1.30;99.90;;;;;;5058360;28;20443;-79
2021/04/23 02:02:01;;;;;;;12.63;8.47;;;1.10;99.90;;;;;;5059556;28;20958;-79
2021/04/23 02:04:27;;;;;;;12.90;8.20;;;1.20;99.90;;;;;;5059400;28;20416;-79
2021/04/23 02:06:54;;;;;;;14.67;9.37;;;1.20;99.90;;;;;;5059539;28;20404;-79
2021/04/23 02:09:20;;;;;;;14.13;7.97;;;1.00;99.90;;;;;;5059379;28;20456;-79
2021/04/23 02:11:48;;;;;;;14.00;8.37;;;1.10;99.90;;;;;;5058136;28;20513;-79
2021/04/23 02:14:14;;;;;;;14.10;8.13;;;1.00;99.90;;;;;;5059507;28;20412;-79
2021/04/23 02:16:41;;;;;;;13.17;8.70;;;1.10;99.90;;;;;;5058600;28;20408;-79
2021/04/23 02:19:12;;;;;;;15.43;8.73;;;1.00;99.90;;;;;;5059559;28;20424;-78
2021/04/23 02:21:38;;;;;;;13.03;8.23;;;2.10;99.90;;;;;;5059125;28;20902;-79
2021/04/23 02:24:05;;;;;;;12.77;8.80;;;1.00;99.90;;;;;;5059397;28;20408;-78
2021/04/23 02:26:32;;;;;;;17.53;9.10;;;0.90;99.90;;;;;;5059374;28;20438;-79
2021/04/23 02:28:58;;;;;;;11.87;8.07;;;0.90;99.90;;;;;;5058874;28;20428;-79
2021/04/23 02:31:26;;;;;;;11.43;8.00;;;0.80;99.90;;;;;;5059444;28;20463;-78
2021/04/23 02:33:55;;;;;;;16.53;8.10;;;0.70;99.90;;;;;;5057773;28;20184;-79
2021/04/23 02:36:21;;;;;;;12.77;8.53;;;0.70;99.90;;;;;;5058779;28;20470;-79
2021/04/23 02:38:48;;;;;;;15.93;7.67;;;0.80;99.90;;;;;;5059450;28;20435;-78
2021/04/23 02:41:14;;;;;;;15.30;8.47;;;0.80;99.90;;;;;;5059751;28;20504;-78
2021/04/23 02:43:47;;;;;;;14.60;8.90;;;0.70;99.90;;;;;;5059617;28;20450;-79
2021/04/23 02:46:13;;;;;;;12.50;8.40;;;0.80;99.90;;;;;;5060003;28;20483;-79
2021/04/23 02:48:41;;;;;;;14.83;8.97;;;0.70;99.90;;;;;;5059516;28;20897;-79
2021/04/23 02:51:13;;;;;;;13.53;8.73;;;0.70;99.90;;;;;;5058890;28;20526;-79
2021/04/23 02:53:40;;;;;;;12.30;8.13;;;0.70;99.90;;;;;;5058763;28;20384;-78
2021/04/23 02:56:08;;;;;;;10.97;7.53;;;0.60;99.90;;;;;;5057284;28;20465;-79
2021/04/23 02:58:35;;;;;;;14.87;8.20;;;0.50;99.90;;;;;;5058412;28;20955;-78
2021/04/23 03:01:04;;;;;;;12.07;7.53;;;0.50;99.90;;;;;;5058852;28;20499;-78
2021/04/23 03:03:30;;;;;;;13.27;8.37;;;0.60;99.90;;;;;;5058712;28;20408;-79
2021/04/23 03:05:57;;;;;;;13.83;8.33;;;0.50;99.90;;;;;;5057191;28;20412;-78
2021/04/23 03:08:23;;;;;;;15.13;8.70;;;0.50;99.90;;;;;;5057432;28;20220;-79
2021/04/23 03:10:53;;;;;;;13.57;8.27;;;0.50;99.90;;;;;;5058485;28;20941;-78
2021/04/23 03:13:22;;;;;;;11.73;7.80;;;0.50;99.90;;;;;;5057764;28;20192;-78
2021/04/23 03:15:50;;;;;;;10.13;7.70;;;0.40;99.90;;;;;;5057188;28;20412;-78
2021/04/23 03:18:22;;;;;;;12.80;8.97;;;0.40;99.90;;;;;;5058852;28;20435;-79
2021/04/23 03:20:49;;;;;;;14.17;7.90;;;0.40;99.90;;;;;;5057632;28;20812;-78
2021/04/23 03:23:15;;;;;;;13.97;8.73;;;0.30;99.90;;;;;;5057591;28;20503;-79
2021/04/23 03:25:42;;;;;;;15.00;8.63;;;0.40;99.90;;;;;;5056855;28;20473;-79
2021/04/23 03:28:08;;;;;;;13.70;8.47;;;0.40;99.90;;;;;;5058785;28;20428;-79
2021/04/23 03:30:38;;;;;;;15.60;9.03;;;0.30;99.90;;;;;;5058697;28;20894;-78
2021/04/23 03:33:04;;;;;;;11.90;7.63;;;0.40;99.90;;;;;;5057286;28;20820;-79
2021/04/23 03:35:31;;;;;;;12.30;8.23;;;0.20;99.90;;;;;;5057195;28;20455;-78
2021/04/23 03:37:58;;;;;;;15.63;8.60;;;0.40;99.90;;;;;;5061540;28;20483;-79
2021/04/23 03:40:29;;;;;;;12.80;8.13;;;0.20;99.90;;;;;;5062775;28;20419;-79
2021/04/23 03:42:55;;;;;;;12.30;8.60;;;0.20;99.90;;;;;;5060999;28;20424;-79
2021/04/23 03:45:22;;;;;;;14.30;8.53;;;0.10;99.90;;;;;;5060692;28;20416;-79
2021/04/23 03:47:49;;;;;;;12.77;8.00;;;0.00;99.90;;;;;;5062319;28;20197;-78
2021/04/23 03:50:19;;;;;;;12.87;8.67;;;0.20;99.90;;;;;;5061012;28;20427;-78
2021/04/23 03:52:47;;;;;;;17.27;8.33;;;0.10;99.90;;;;;;5062631;28;20440;-79
2021/04/23 03:55:21;;;;;;;11.47;7.67;;;0.00;99.90;;;;;;5078852;28;20780;-78
2021/04/23 03:57:47;;;;;;;14.77;8.87;;;0.00;99.90;;;;;;5061161;28;20448;-79
2021/04/23 04:00:16;;;;;;;16.83;7.77;;;0.00;99.90;;;;;;5063544;28;20404;-79
2021/04/23 04:02:42;;;;;;;13.53;7.87;;;-0.10;99.90;;;;;;5062760;28;20416;-79
2021/04/23 04:05:09;;;;;;;10.77;7.33;;;-0.10;99.90;;;;;;5064550;28;20419;-79
2021/04/23 04:07:35;;;;;;;16.10;7.57;;;-0.20;99.90;;;;;;5063231;28;20173;-79
2021/04/23 04:10:01;;;;;;;12.73;7.63;;;-0.10;99.90;;;;;;5064497;28;20482;-78
2021/04/23 04:12:27;;;;;;;11.27;7.80;;;-0.20;99.90;;;;;;5064174;28;20694;-79
2021/04/23 04:14:53;;;;;;;11.97;6.87;;;-0.30;99.90;;;;;;5062938;28;20181;-78
2021/04/23 04:17:19;;;;;;;12.90;8.70;;;-0.30;99.90;;;;;;5064498;28;20635;-79
2021/04/23 04:19:45;;;;;;;14.93;8.83;;;-0.30;99.90;;;;;;5062350;28;20436;-80
2021/04/23 04:22:10;;;;;;;11.70;7.80;;;-0.30;99.90;;;;;;5063107;28;20434;-80
2021/04/23 04:24:36;;;;;;;14.93;8.77;;;-0.30;99.90;;;;;;5058455;28;20173;-77
2021/04/23 04:27:02;;;;;;;14.83;8.17;;;-0.30;99.90;;;;;;5057274;28;20180;-77
2021/04/23 04:29:28;;;;;;;14.20;8.50;;;-0.30;99.90;;;;;;5057131;28;20193;-77
2021/04/23 04:31:54;;;;;;;13.87;7.97;;;-0.30;99.90;;;;;;5057004;28;20806;-77
2021/04/23 04:34:20;;;;;;;14.53;8.03;;;-0.30;99.90;;;;;;5072433;28;20169;-78
2021/04/23 04:36:46;;;;;;;12.67;8.30;;;-0.20;99.90;;;;;;5057315;28;20507;-77
2021/04/23 04:39:12;;;;;;;13.37;8.00;;;-0.30;99.90;;;;;;5055588;28;20656;-77
2021/04/23 04:41:38;;;;;;;11.50;7.50;;;-0.30;99.90;;;;;;5056046;28;20182;-77
2021/04/23 04:44:05;;;;;;;12.80;7.53;;;-0.20;99.90;;;;;;5057255;28;20416;-78
2021/04/23 04:46:31;;;;;;;12.03;9.10;;;-0.30;99.90;;;;;;5056550;28;20420;-78
2021/04/23 04:48:57;;;;;;;9.63;7.10;;;-0.20;99.90;;;;;;5055730;28;20432;-78
2021/04/23 04:51:23;;;;;;;12.73;8.50;;;0.50;99.90;;;;;;5057202;28;20200;-77
2021/04/23 04:53:48;;;;;;;11.80;7.67;;;-0.20;99.90;;;;;;5058136;28;20412;-77
2021/04/23 04:56:15;;;;;;;11.87;7.83;;;-0.20;99.90;;;;;;5070560;28;20591;-77
2021/04/23 04:58:42;;;;;;;14.43;9.13;;;-0.20;99.90;;;;;;5068343;28;20189;-77
2021/04/23 05:01:09;;;;;;;13.70;7.50;;;-0.20;99.90;;;;;;5077517;28;20423;-77
2021/04/23 05:03:36;;;;;;;14.60;8.43;;;0.00;99.90;;;;;;5081230;28;20432;-77
2021/04/23 05:06:03;;;;;;;11.97;8.37;;;0.30;99.90;;;;;;5071922;28;20428;-78
2021/04/23 05:08:28;;;;;;;11.13;7.77;;;-0.10;99.90;;;;;;5060032;28;20428;-78
2021/04/23 05:10:54;;;;;;;12.17;8.80;;;-0.10;99.90;;;;;;5060692;28;20520;-78
2021/04/23 05:13:20;;;;;;;13.60;7.83;;;-0.10;99.90;;;;;;5058954;28;20169;-78
2021/04/23 05:15:45;;;;;;;12.67;8.83;;;0.00;99.90;;;;;;5057772;28;20193;-78
2021/04/23 05:18:11;;;;;;;10.67;7.70;;;0.80;99.90;;;;;;5057678;28;20194;-78
2021/04/23 05:20:37;;;;;;;10.77;7.47;;;0.20;99.90;;;;;;5056097;28;20280;-79
2021/04/23 05:23:03;;;;;;;17.93;9.67;;;0.20;99.90;;;;;;5059479;28;20205;-78
2021/04/23 05:25:30;;;;;;;12.20;8.00;;;0.40;99.90;;;;;;5057323;28;20174;-78
2021/04/23 05:27:56;;;;;;;18.97;9.27;;;0.50;99.90;;;;;;5022300;28;20450;-78
2021/04/23 05:30:25;;;;;;;12.47;8.47;;;0.60;99.90;;;;;;5056260;28;20416;-78
2021/04/23 05:32:53;;;;;;;12.80;8.50;;;0.60;99.90;;;;;;5055128;28;21027;-77
2021/04/23 05:35:20;;;;;;;16.83;9.37;;;0.80;99.90;;;;;;5054287;28;20420;-77
2021/04/23 05:37:47;;;;;;;14.47;9.37;;;0.90;99.90;;;;;;5056239;28;20404;-78
2021/04/23 05:40:16;;;;;;;16.60;9.57;;;0.90;99.90;;;;;;5055942;28;20424;-77
2021/04/23 05:42:42;;;;;;;15.73;9.50;;;1.10;99.90;;;;;;5055462;28;20507;-77
2021/04/23 05:45:09;;;;;;;16.67;9.87;;;1.20;99.90;;;;;;5057295;28;20505;-77
2021/04/23 05:47:36;;;;;;;14.73;7.97;;;1.30;99.90;;;;;;5054455;28;20182;-77
2021/04/23 05:50:02;;;;;;;16.33;9.67;;;1.40;99.90;;;;;;5055373;28;20940;-77
2021/04/23 05:52:28;;;;;;;15.03;10.13;;;1.50;99.90;;;;;;5054681;28;20456;-78
2021/04/23 05:54:54;;;;;;;16.97;9.40;;;1.60;99.90;;;;;;5054652;28;20498;-77
2021/04/23 05:57:19;;;;;;;14.20;8.80;;;1.70;99.90;;;;;;5053906;28;20185;-77
2021/04/23 05:59:45;;;;;;;15.43;9.90;;;1.80;99.90;;;;;;5070810;28;20200;-77
2021/04/23 06:02:11;;;;;;;17.43;10.53;;;1.90;99.90;;;;;;5054218;28;20221;-77
2021/04/23 06:04:36;;;;;;;14.87;10.47;;;2.00;99.90;;;;;;5054831;28;20206;-77
2021/04/23 06:07:02;;;;;;;13.53;9.17;;;2.30;99.90;;;;;;5053935;28;20336;-77
2021/04/23 06:09:28;;;;;;;12.40;9.27;;;2.40;99.90;;;;;;5070669;28;20213;-77
2021/04/23 06:11:53;;;;;;;18.83;9.27;;;2.50;99.90;;;;;;5055009;28;20647;-78
2021/04/23 06:14:22;;;;;;;20.77;11.13;;;2.60;99.90;;;;;;5055119;28;20243;-77
2021/04/23 06:16:50;;;;;;;18.80;11.03;;;2.80;99.90;;;;;;5055665;28;20218;-78
2021/04/23 06:19:16;;;;;;;16.20;10.90;;;2.80;99.90;;;;;;5055760;28;20481;-77
2021/04/23 06:21:41;;;;;;;17.83;11.30;;;2.90;99.90;;;;;;5054900;28;20436;-77
2021/04/23 06:24:07;;;;;;;13.30;9.50;;;3.10;99.90;;;;;;5054975;28;20186;-77
2021/04/23 06:26:33;;;;;;;16.47;11.03;;;3.20;99.90;;;;;;5054054;28;20178;-77
2021/04/23 06:28:59;;;;;;;18.77;11.23;;;3.40;99.90;;;;;;5053031;28;20447;-78
2021/04/23 06:31:25;;;;;;;16.43;10.67;;;3.50;99.90;;;;;;5053887;28;20197;-78
2021/04/23 06:33:53;;;;;;;14.83;10.53;;;3.70;99.90;;;;;;5052528;28;20180;-77
2021/04/23 06:36:20;;;;;;;16.33;11.37;;;3.90;99.90;;;;;;5054654;28;20177;-78
2021/04/23 06:38:46;;;;;;;20.97;11.30;;;4.10;99.90;;;;;;5053226;28;20521;-78
2021/04/23 06:41:12;;;;;;;19.13;10.30;;;4.30;99.90;;;;;;5054343;28;20416;-78
2021/04/23 06:43:39;;;;;;;15.87;11.10;;;4.50;99.90;;;;;;5053177;28;20185;-78
2021/04/23 06:46:05;;;;;;;17.80;11.70;;;4.60;99.90;;;;;;5070033;28;20423;-78
2021/04/23 06:48:30;;;;;;;16.93;11.03;;;4.90;99.90;;;;;;5069626;28;20441;-77
2021/04/23 06:50:57;;;;;;;23.87;14.30;;;5.00;99.90;;;;;;5054509;28;20254;-78
2021/04/23 06:53:24;;;;;;;26.00;15.03;;;5.20;99.90;;;;;;5053260;28;20591;-77
2021/04/23 06:55:51;;;;;;;21.07;13.30;;;5.20;99.90;;;;;;5053845;28;20744;-78
2021/04/23 06:58:16;;;;;;;21.67;15.17;;;5.40;99.90;;;;;;5054649;28;20438;-78
2021/04/23 07:00:43;;;;;;;23.67;15.67;;;5.50;99.90;;;;;;5053351;28;20419;-78
2021/04/23 07:03:11;;;;;;;16.40;11.77;;;5.70;99.90;;;;;;5054037;28;20619;-78
2021/04/23 07:05:42;;;;;;;15.57;11.00;;;5.90;99.90;;;;;;5053975;28;20185;-78
2021/04/23 07:08:08;;;;;;;13.83;9.70;;;6.10;99.90;;;;;;5053789;28;20202;-78
2021/04/23 07:10:34;;;;;;;14.67;7.40;;;6.20;99.90;;;;;;5055149;28;20223;-78
2021/04/23 07:13:00;;;;;;;12.57;7.87;;;6.30;99.90;;;;;;5054687;28;20198;-78
2021/04/23 07:15:31;;;;;;;11.97;7.70;;;6.40;99.90;;;;;;5055479;28;20168;-78
2021/04/23 07:17:57;;;;;;;11.93;8.00;;;6.70;99.90;;;;;;5054908;28;20156;-78
2021/04/23 07:20:24;;;;;;;16.87;7.87;;;6.80;99.90;;;;;;5054638;28;20220;-78
2021/04/23 07:22:51;;;;;;;14.10;8.83;;;6.90;99.90;;;;;;5053996;28;20216;-78
2021/04/23 07:25:18;;;;;;;9.43;6.60;;;7.20;99.90;;;;;;5054674;28;20659;-78
2021/04/23 07:27:45;;;;;;;8.40;6.13;;;7.60;99.90;;;;;;5055512;28;20678;-78
2021/04/23 07:30:17;;;;;;;10.67;5.43;;;7.90;99.90;;;;;;5055965;28;20198;-78
2021/04/23 07:32:43;;;;;;;11.50;6.00;;;8.10;99.90;;;;;;5055167;28;20226;-78
2021/04/23 07:35:09;;;;;;;13.03;5.83;;;8.60;99.90;;;;;;5056335;28;20175;-78
2021/04/23 07:37:36;;;;;;;11.40;6.40;;;9.50;99.90;;;;;;5056309;28;20181;-78
2021/04/23 07:40:04;;;;;;;11.47;5.17;;;10.60;99.90;;;;;;5057097;28;20196;-78
2021/04/23 07:42:29;;;;;;;11.20;4.10;;;11.60;98.60;;;;;;5057537;28;20181;-78
2021/04/23 07:44:55;;;;;;;6.07;3.63;;;12.40;90.40;;;;;;5057715;28;20545;-78
2021/04/23 07:47:21;;;;;;;10.63;4.63;;;13.00;84.10;;;;;;5057991;28;20197;-78
2021/04/23 07:49:48;;;;;;;11.73;5.43;;;13.60;79.40;;;;;;5057526;28;20200;-79
2021/04/23 07:52:14;;;;;;;17.53;5.07;;;14.10;76.60;;;;;;5057684;28;20205;-78
2021/04/23 07:54:40;;;;;;;14.30;5.97;;;14.40;75.00;;;;;;5056508;28;20189;-79
2021/04/23 07:57:07;;;;;;;11.53;4.80;;;14.80;70.20;;;;;;5056920;28;20173;-78
2021/04/23 07:59:33;;;;;;;12.23;5.40;;;15.50;66.50;;;;;;5056259;28;20198;-78
2021/04/23 08:02:01;;;;;;;10.67;3.97;;;15.80;67.30;;;;;;5057778;28;20177;-78
2021/04/23 08:04:27;;;;;;;6.77;3.97;;;15.80;62.40;;;;;;5056589;28;20192;-78
2021/04/23 08:06:52;;;;;;;10.97;4.40;;;16.20;58.10;;;;;;5073321;28;20177;-78
2021/04/23 08:09:18;;;;;;;9.67;4.80;;;16.00;57.10;;;;;;5056705;28;20527;-79
2021/04/23 08:11:43;;;;;;;10.73;4.77;;;16.10;58.20;;;;;;5060712;28;20255;-78
2021/04/23 08:14:09;;;;;;;7.30;4.30;;;16.10;57.20;;;;;;5054549;28;20169;-78
2021/04/23 08:16:35;;;;;;;13.50;6.90;;;16.00;59.00;;;;;;5064723;28;20166;-78
2021/04/23 08:19:01;;;;;;;10.70;4.50;;;16.10;57.70;;;;;;5075209;28;20213;-77
2021/04/23 08:21:27;;;;;;;8.23;4.17;;;16.00;55.40;;;;;;5077524;28;20201;-78
2021/04/23 08:23:53;;;;;;;10.00;4.13;;;16.30;55.50;;;;;;5071394;28;20245;-78
2021/04/23 08:26:19;;;;;;;8.43;3.87;;;16.70;55.40;;;;;;5061782;28;20216;-78
2021/04/23 08:28:45;;;;;;;9.87;4.33;;;17.10;53.90;;;;;;5061348;28;20610;-79
2021/04/23 08:31:11;;;;;;;10.33;3.90;;;17.40;52.30;;;;;;5061871;28;20670;-79
2021/04/23 08:33:37;;;;;;;6.87;3.90;;;17.60;48.20;;;;;;5063569;28;20508;-78
2021/04/23 08:36:03;;;;;;;10.00;4.20;;;17.90;48.10;;;;;;5062216;28;20190;-78
2021/04/23 08:38:29;;;;;;;9.47;4.40;;;17.40;49.70;;;;;;5062395;28;20251;-78
2021/04/23 08:40:57;;;;;;;9.57;4.03;;;17.40;51.40;;;;;;5061871;28;20186;-79
2021/04/23 08:43:24;;;;;;;10.80;3.93;;;17.60;49.70;;;;;;5060944;28;20192;-79
2021/04/23 08:45:50;;;;;;;8.00;3.77;;;17.20;50.10;;;;;;5061881;28;20213;-78
2021/04/23 08:48:16;;;;;;;12.17;3.97;;;17.40;50.20;;;;;;5060305;28;20549;-78
2021/04/23 08:50:43;;;;;;;5.20;3.53;;;17.10;49.70;;;;;;5061735;28;20177;-78
2021/04/23 08:53:09;;;;;;;9.57;3.93;;;17.20;47.30;;;;;;5059887;28;20191;-79
2021/04/23 08:55:35;;;;;;;11.03;3.77;;;17.10;46.90;;;;;;5059834;28;20197;-78
2021/04/23 08:58:03;;;;;;;4.77;3.40;;;17.10;50.70;;;;;;5060279;28;20288;-78
2021/04/23 09:00:28;;;;;;;8.47;3.93;;;17.20;48.80;;;;;;5061820;28;20174;-78
2021/04/23 09:02:54;;;;;;;11.23;3.77;;;16.90;49.80;;;;;;5060807;28;20658;-78
2021/04/23 09:05:20;;;;;;;10.13;3.67;;;17.00;46.80;;;;;;5061715;28;20754;-78
2021/04/23 09:08:04;;;;;;;11.57;3.97;;;17.10;47.30;;;;;;5061803;28;20177;-79
2021/04/23 09:10:31;;;;;;;8.27;3.50;;;17.20;47.70;;;;;;5061112;28;20200;-78
2021/04/23 09:13:13;;;;;;;8.43;3.60;;;17.50;48.00;;;;;;5059837;28;20279;-79
2021/04/23 09:15:42;;;;;;;10.97;3.53;;;17.60;48.60;;;;;;5061082;28;20268;-79
2021/04/23 09:18:13;;;;;;;5.97;3.93;;;17.30;47.10;;;;;;5060732;28;20667;-79
2021/04/23 09:20:42;;;;;;;8.10;3.40;;;16.90;51.60;;;;;;5060229;28;20232;-79
2021/04/23 09:23:19;;;;;;;10.27;3.10;;;17.10;52.00;;;;;;5060046;28;20207;-79
2021/04/23 09:25:46;;;;;;;8.67;3.23;;;17.20;51.50;;;;;;5059985;28;20177;-78
2021/04/23 09:28:13;;;;;;;9.77;3.63;;;17.30;49.80;;;;;;5061836;28;20193;-79
2021/04/23 09:30:39;;;;;;;9.93;3.10;;;16.90;48.80;;;;;;5062291;28;20527;-79
2021/04/23 09:33:22;;;;;;;11.13;3.43;;;16.70;48.40;;;;;;5061566;28;20231;-79
2021/04/23 09:35:48;;;;;;;6.70;3.37;;;16.80;49.20;;;;;;5061146;28;20173;-79
2021/04/23 09:38:15;;;;;;;5.90;3.20;;;17.00;47.90;;;;;;5061137;28;20221;-79
2021/04/23 09:40:42;;;;;;;7.17;3.23;;;17.20;49.00;;;;;;5059603;28;20247;-79
2021/04/23 09:43:08;;;;;;;6.87;3.13;;;17.20;47.90;;;;;;5062268;28;20181;-79
2021/04/23 09:45:46;;;;;;;6.37;3.00;;;17.30;48.70;;;;;;5060995;28;20181;-78
2021/04/23 09:48:21;;;;;;;8.73;2.93;;;17.40;48.10;;;;;;5062864;28;20263;-79
2021/04/23 09:50:46;;;;;;;4.27;2.73;;;17.10;46.60;;;;;;5061375;28;20260;-79
2021/04/23 09:53:12;;;;;;;7.50;3.37;;;17.00;48.10;;;;;;5061569;28;20246;-79
2021/04/23 09:55:38;;;;;;;6.50;3.53;;;16.90;45.30;;;;;;5076438;28;20181;-79
2021/04/23 09:58:06;;;;;;;7.93;3.30;;;16.80;49.10;;;;;;5059635;28;20666;-78
2021/04/23 10:00:35;;;;;;;7.90;3.07;;;16.80;46.60;;;;;;5059440;28;20174;-79
2021/04/23 10:03:03;;;;;;;8.67;3.00;;;17.00;45.70;;;;;;5059385;28;20186;-79
2021/04/23 10:05:30;;;;;;;7.07;3.00;;;17.20;46.80;;;;;;5059242;28;20182;-78
2021/04/23 10:07:56;;;;;;;7.17;3.13;;;17.30;47.60;;;;;;5060258;28;20701;-79
2021/04/23 10:10:22;;;;;;;4.60;2.80;;;17.60;48.50;;;;;;5057747;28;20235;-79
2021/04/23 10:12:52;;;;;;;7.33;3.20;;;17.60;46.50;;;;;;5059961;28;20204;-79
2021/04/23 10:15:24;;;;;;;7.97;2.90;;;17.80;44.70;;;;;;5060326;28;20177;-79
2021/04/23 10:17:59;;;;;;;9.30;3.57;;;17.50;44.30;;;;;;5059010;28;20188;-79
2021/04/23 10:20:26;;;;;;;6.93;3.30;;;17.60;48.80;;;;;;5058099;28;20218;-79
2021/04/23 10:22:53;;;;;;;4.37;2.63;;;17.60;44.40;;;;;;5059916;28;20177;-79
2021/04/23 10:25:19;;;;;;;7.50;3.20;;;16.80;42.40;;;;;;5058904;28;20199;-79
2021/04/23 10:27:46;;;;;;;7.20;3.37;;;16.90;46.20;;;;;;5058938;28;20226;-79
2021/04/23 10:30:21;;;;;;;8.07;3.30;;;16.90;45.50;;;;;;5059781;28;20177;-79
2021/04/23 10:32:54;;;;;;;9.23;3.10;;;17.30;45.40;;;;;;5056936;28;20679;-78
2021/04/23 10:35:23;;;;;;;6.60;3.13;;;17.90;45.70;;;;;;5058702;28;20185;-79
2021/04/23 10:37:49;;;;;;;8.50;2.73;;;18.10;47.70;;;;;;5056718;28;20272;-79
2021/04/23 10:40:18;;;;;;;6.80;2.80;;;18.40;44.00;;;;;;5059072;28;20197;-79
2021/04/23 10:42:48;;;;;;;7.67;3.00;;;18.30;44.70;;;;;;5058555;28;20520;-79
2021/04/23 10:45:38;;;;;;;7.17;2.93;;;18.20;46.10;;;;;;5058359;28;20208;-79
2021/04/23 10:48:24;;;;;;;9.93;2.93;;;18.10;40.60;;;;;;5058990;28;20184;-80
2021/04/23 10:51:02;;;;;;;7.67;3.00;;;17.20;41.50;;;;;;5061916;28;20173;-79
2021/04/23 10:53:43;;;;;;;6.10;2.60;;;17.20;44.70;;;;;;5061984;28;20180;-79
2021/04/23 10:56:29;;;;;;;5.90;2.93;;;17.70;46.90;;;;;;5063170;28;20245;-79
2021/04/23 10:59:00;;;;;;;4.43;2.80;;;18.20;42.90;;;;;;5064897;28;20198;-78
2021/04/23 11:01:30;;;;;;;6.80;3.00;;;18.30;43.30;;;;;;5059078;28;20174;-79
2021/04/23 11:04:06;;;;;;;5.33;2.73;;;18.10;37.90;;;;;;5059020;28;20186;-79
2021/04/23 11:06:37;;;;;;;4.20;2.47;;;17.70;39.90;;;;;;5076010;28;20593;-79
2021/04/23 11:09:07;;;;;;;5.90;3.67;;;18.00;45.60;;;;;;5059447;28;20574;-79
2021/04/23 11:11:34;;;;;;;7.90;3.63;;;18.40;44.60;;;;;;5076552;28;20217;-79
2021/04/23 11:14:23;;;;;;;6.27;3.40;;;18.70;44.30;;;;;;5058273;28;20259;-79
2021/04/23 11:16:51;;;;;;;6.63;3.77;;;19.00;42.90;;;;;;5059464;28;20171;-78
2021/04/23 11:19:20;;;;;;;9.20;3.37;;;19.60;43.60;;;;;;5059643;28;20189;-79
2021/04/23 11:21:48;;;;;;;8.17;3.77;;;19.60;42.00;;;;;;5066937;28;20189;-79
2021/04/23 11:24:15;;;;;;;5.30;3.40;;;19.40;45.40;;;;;;5074433;28;20183;-78
2021/04/23 11:29:23;;;;;;;5.07;3.30;;;18.90;40.30;;;;;;5063289;28;20232;-79
2021/04/23 11:32:16;;;;;;;9.73;3.20;;;19.10;43.10;;;;;;5059783;28;20363;-79
2021/04/23 11:34:47;;;;;;;4.40;2.93;;;19.80;42.20;;;;;;5060250;28;20167;-78
2021/04/23 11:37:23;;;;;;;4.97;2.73;;;20.40;40.60;;;;;;5058731;28;20255;-78
2021/04/23 11:39:55;;;;;;;7.53;2.80;;;20.20;39.80;;;;;;5054656;28;20197;-78
2021/04/23 11:42:23;;;;;;;7.80;3.13;;;19.90;38.60;;;;;;5057069;28;20593;-78
2021/04/23 11:45:10;;;;;;;5.93;3.33;;;19.90;41.80;;;;;;5057306;28;20311;-78
2021/04/23 11:47:41;;;;;;;12.03;3.70;;;20.00;41.20;;;;;;5060645;28;20169;-79
2021/04/23 11:50:12;;;;;;;7.47;3.17;;;20.50;40.70;;;;;;5061581;28;20280;-80
2021/04/23 11:52:41;;;;;;;6.77;3.13;;;20.50;40.60;;;;;;5059945;28;20187;-80
2021/04/23 11:55:29;;;;;;;8.17;3.50;;;20.50;41.60;;;;;;5061001;28;20558;-79
2021/04/23 11:58:06;;;;;;;6.83;3.63;;;20.40;38.90;;;;;;5061808;28;20599;-80
2021/04/23 12:00:33;;;;;;;6.37;3.20;;;20.40;40.50;;;;;;5064378;28;20224;-79
2021/04/23 12:03:04;;;;;;;16.07;3.63;;;20.50;39.70;;;;;;5064437;28;20238;-79
2021/04/23 12:05:36;;;;;;;12.90;4.40;;;21.00;43.20;;;;;;5065533;28;20637;-80
2021/04/23 12:08:19;;;;;;;9.27;3.80;;;21.40;41.30;;;;;;5063308;28;20538;-79
2021/04/23 12:11:00;;;;;;;7.43;3.90;;;21.50;41.40;;;;;;5064661;28;20175;-79
2021/04/23 12:13:46;;;;;;;6.47;3.87;;;21.50;38.60;;;;;;5064319;28;20179;-79
2021/04/23 12:16:13;;;;;;;5.50;3.50;;;21.00;38.60;;;;;;5062498;28;20215;-79
2021/04/23 12:18:44;;;;;;;10.07;3.77;;;21.00;38.00;;;;;;5063638;28;20762;-80
2021/04/23 12:21:12;;;;;;;13.20;3.67;;;21.30;40.00;;;;;;5064907;28;20685;-79
2021/04/23 12:23:38;;;;;;;10.10;3.47;;;21.20;39.20;;;;;;5063451;28;20178;-79
2021/04/23 12:26:08;;;;;;;7.43;4.00;;;21.40;38.20;;;;;;5065210;28;20186;-79
2021/04/23 12:28:37;;;;;;;8.83;3.83;;;21.30;38.90;;;;;;5065112;28;20198;-79
2021/04/23 12:31:16;;;;;;;7.30;4.10;;;20.90;38.70;;;;;;5063515;28;20209;-80
2021/04/23 12:33:51;;;;;;;7.10;3.93;;;21.60;38.00;;;;;;5065903;28;20641;-80
2021/04/23 12:36:24;;;;;;;7.47;4.00;;;22.10;41.30;;;;;;5065562;28;20171;-80
2021/04/23 12:39:07;;;;;;;7.50;4.17;;;22.60;37.60;;;;;;5064948;28;20200;-78
2021/04/23 12:41:42;;;;;;;5.80;4.00;;;22.50;37.50;;;;;;5063337;28;20189;-79
2021/04/23 12:44:09;;;;;;;7.23;3.40;;;22.20;37.50;;;;;;5061939;28;20184;-79
2021/04/23 12:46:36;;;;;;;6.90;3.60;;;21.60;36.50;;;;;;5062996;28;20184;-79
2021/04/23 12:49:26;;;;;;;6.97;3.37;;;21.40;39.20;;;;;;5062971;28;20223;-79
2021/04/23 12:51:58;;;;;;;9.63;4.00;;;21.70;37.40;;;;;;5061583;28;20166;-79